Time;durP1;ratioP1;P1;durP2;ratioP2;P2;SDS_P1;SDS_P2;PMS_P1;PMS_P2;Temp;Humidity;BMP_temperature;BMP_pressure;BME280_temperature;BME280_humidity;BME280_pressure;Samples;Min_cycle;Max_cycle;Signal;HPM_P1;HPM_P2
2023/06/12 00:02:13;;;;;;;6.63;5.70;;;;;;;20.74;53.95;101365.47;4991009;28;20030;-60
2023/06/12 00:04:39;;;;;;;6.10;5.50;;;;;;;20.70;54.00;101361.09;4991152;28;20133;-60
2023/06/12 00:07:05;;;;;;;9.25;5.32;;;;;;;20.68;55.22;101368.13;4990833;28;20109;-60
2023/06/12 00:09:32;;;;;;;9.40;5.32;;;;;;;20.60;54.99;101363.72;4991353;28;20279;-60
2023/06/12 00:11:58;;;;;;;6.68;5.68;;;;;;;20.56;54.61;101359.34;4990502;28;20037;-60
2023/06/12 00:14:23;;;;;;;6.80;5.45;;;;;;;20.51;55.04;101369.88;4990795;28;20026;-60
2023/06/12 00:16:48;;;;;;;7.50;5.47;;;;;;;20.46;55.33;101361.13;4991207;28;20030;-60
2023/06/12 00:19:14;;;;;;;8.02;5.13;;;;;;;20.39;55.51;101368.16;4991166;28;20038;-60
2023/06/12 00:21:39;;;;;;;6.75;5.57;;;;;;;20.31;56.10;101367.25;4991044;28;20057;-60
2023/06/12 00:24:08;;;;;;;5.28;4.88;;;;;;;20.25;55.87;101367.28;4990558;28;20023;-60
2023/06/12 00:26:36;;;;;;;7.40;5.60;;;;;;;20.17;55.72;101367.28;4990499;28;20093;-61
2023/06/12 00:29:02;;;;;;;6.43;5.63;;;;;;;20.13;56.50;101365.53;4990509;28;20398;-60
2023/06/12 00:31:27;;;;;;;8.30;5.35;;;;;;;20.11;56.88;101367.28;4990817;28;20318;-61
2023/06/12 00:33:52;;;;;;;9.73;5.78;;;;;;;20.10;56.34;101368.16;4990618;28;20109;-60
2023/06/12 00:36:18;;;;;;;5.55;4.95;;;;;;;20.07;56.58;101374.31;4989752;28;20078;-60
2023/06/12 00:38:43;;;;;;;7.65;5.53;;;;;;;20.05;56.89;101370.78;4990288;28;20691;-60
2023/06/12 00:41:09;;;;;;;5.78;5.28;;;;;;;20.01;56.96;101369.00;4990495;28;20490;-60
2023/06/12 00:43:34;;;;;;;5.85;5.35;;;;;;;19.98;55.86;101374.25;4989802;28;20487;-60
2023/06/12 00:46:00;;;;;;;6.88;5.20;;;;;;;19.95;57.27;101366.38;4988980;28;20023;-60
2023/06/12 00:48:26;;;;;;;6.80;5.40;;;;;;;19.91;57.21;101363.72;4990255;28;20161;-61
2023/06/12 00:50:52;;;;;;;6.82;5.30;;;;;;;19.86;57.68;101360.19;4990277;28;20117;-60
2023/06/12 00:53:18;;;;;;;5.60;5.10;;;;;;;19.86;57.43;101364.59;4989968;28;20025;-59
2023/06/12 00:55:44;;;;;;;5.93;5.38;;;;;;;19.84;57.11;101361.94;4989413;28;20034;-60
2023/06/12 00:58:09;;;;;;;5.13;4.72;;;;;;;19.78;57.13;101357.59;4990296;28;20050;-61
2023/06/12 01:00:38;;;;;;;6.88;5.10;;;;;;;19.76;57.69;101367.22;4989749;28;20402;-60
2023/06/12 01:03:07;;;;;;;7.05;6.05;;;;;;;19.75;58.17;101368.06;4990008;28;20022;-60
2023/06/12 01:05:36;;;;;;;5.80;5.30;;;;;;;19.70;58.59;101368.97;4990338;28;20382;-60
2023/06/12 01:08:16;;;;;;;6.20;5.10;;;;;;;19.64;58.84;101364.56;4990108;28;20018;-60
2023/06/12 01:11:07;;;;;;;6.60;5.90;;;;;;;19.57;58.91;101361.03;4979876;28;20045;-59
2023/06/12 01:13:33;;;;;;;5.95;5.35;;;;;;;19.51;59.84;101354.00;4967500;28;20098;-59
2023/06/12 01:15:59;;;;;;;7.13;5.97;;;;;;;19.44;60.18;101362.75;4970170;28;20073;-60
2023/06/12 01:18:25;;;;;;;6.90;6.10;;;;;;;19.38;60.75;101362.72;4970229;28;20027;-59
2023/06/12 01:20:53;;;;;;;8.30;6.50;;;;;;;19.35;59.97;101367.97;4970363;28;20022;-60
2023/06/12 01:23:39;;;;;;;7.40;6.15;;;;;;;19.29;61.18;101366.19;4970140;28;20110;-60
2023/06/12 01:26:34;;;;;;;8.00;6.45;;;;;;;19.25;60.99;101372.31;4970127;28;20104;-59
2023/06/12 01:29:28;;;;;;;8.07;6.25;;;;;;;19.22;61.92;101367.03;4970219;28;20122;-60
2023/06/12 01:32:07;;;;;;;7.13;6.22;;;;;;;19.15;61.74;101364.41;4970102;28;20034;-60
2023/06/12 01:34:57;;;;;;;6.65;6.05;;;;;;;19.07;63.22;101371.31;4969698;28;20026;-60
2023/06/12 01:37:43;;;;;;;7.18;6.35;;;;;;;18.98;62.91;101364.25;4970097;28;20054;-60
2023/06/12 01:40:12;;;;;;;7.05;6.35;;;;;;;18.94;63.06;101360.75;4969728;28;20105;-60
2023/06/12 01:42:38;;;;;;;7.88;6.30;;;;;;;18.90;62.71;101369.50;4970052;28;20121;-60
2023/06/12 01:45:03;;;;;;;8.98;6.10;;;;;;;18.90;63.31;101360.72;4970286;28;20111;-60
2023/06/12 01:47:29;;;;;;;8.73;6.93;;;;;;;18.85;63.73;101365.97;4969311;28;20062;-60
2023/06/12 01:49:54;;;;;;;9.02;6.38;;;;;;;18.81;63.98;101366.81;4969951;28;20031;-60
2023/06/12 01:52:19;;;;;;;7.72;6.07;;;;;;;18.76;63.75;101365.91;4969882;28;20026;-60
2023/06/12 01:54:47;;;;;;;6.35;5.70;;;;;;;18.72;64.58;101363.28;4970010;28;20030;-59
2023/06/12 01:57:13;;;;;;;6.25;5.72;;;;;;;18.68;64.72;101361.47;4969599;28;20089;-60
2023/06/12 01:59:38;;;;;;;7.30;6.35;;;;;;;18.64;65.02;101364.94;4969750;28;20034;-61
2023/06/12 02:02:04;;;;;;;7.93;6.07;;;;;;;18.59;66.01;101362.31;4970053;28;20037;-61
2023/06/12 02:04:30;;;;;;;6.80;6.20;;;;;;;18.55;66.96;101371.00;4969438;28;20425;-60
2023/06/12 02:06:56;;;;;;;8.23;6.10;;;;;;;18.51;66.34;101373.63;4969840;28;20658;-60
2023/06/12 02:09:21;;;;;;;6.63;6.03;;;;;;;18.45;67.90;101372.69;4969966;28;20022;-59
2023/06/12 02:11:46;;;;;;;9.38;6.53;;;;;;;18.40;67.34;101374.41;4970019;28;20022;-60
2023/06/12 02:14:11;;;;;;;7.45;6.75;;;;;;;18.36;70.38;101375.25;4973325;28;20031;-60
2023/06/12 02:16:37;;;;;;;6.80;6.10;;;;;;;18.30;71.19;101370.81;4973317;28;20023;-60
2023/06/12 02:19:02;;;;;;;6.65;6.05;;;;;;;18.27;71.58;101369.91;4973750;28;20026;-61
2023/06/12 02:21:27;;;;;;;8.38;6.15;;;;;;;18.20;71.21;101367.25;4973495;28;20030;-58
2023/06/12 02:23:53;;;;;;;7.10;6.40;;;;;;;18.13;72.24;101366.28;4973592;28;20023;-60
2023/06/12 02:26:19;;;;;;;6.85;6.18;;;;;;;18.09;72.33;101369.75;4973391;28;20403;-60
2023/06/12 02:29:11;;;;;;;7.95;6.05;;;;;;;18.05;73.71;101361.81;4973707;28;20034;-60
2023/06/12 02:31:37;;;;;;;7.55;6.70;;;;;;;18.01;72.21;101363.53;4973572;28;20474;-61
2023/06/12 02:34:02;;;;;;;6.93;6.32;;;;;;;17.93;73.53;101357.34;4972960;28;20085;-60
2023/06/12 02:36:28;;;;;;;7.68;6.47;;;;;;;17.88;73.98;101362.56;4973189;28;20074;-60
2023/06/12 02:38:54;;;;;;;6.88;6.03;;;;;;;17.81;74.48;101360.75;4973354;28;20039;-61
2023/06/12 02:41:19;;;;;;;7.97;6.25;;;;;;;17.80;74.69;101364.22;4973194;28;20030;-60
2023/06/12 02:43:44;;;;;;;6.47;5.65;;;;;;;17.74;75.45;101360.66;4973232;28;20042;-60
2023/06/12 02:46:10;;;;;;;7.38;6.65;;;;;;;17.68;75.71;101349.25;4973020;28;20109;-60
2023/06/12 02:48:35;;;;;;;8.05;6.60;;;;;;;17.65;75.40;101360.56;4972975;28;20479;-60
2023/06/12 02:51:00;;;;;;;7.32;6.60;;;;;;;17.60;76.58;101357.03;4973032;28;20019;-60
2023/06/12 02:53:26;;;;;;;8.75;6.80;;;;;;;17.57;76.51;101357.88;4988081;28;20454;-59
2023/06/12 02:55:51;;;;;;;8.35;7.55;;;;;;;17.52;75.35;101357.81;4973456;28;20483;-60
2023/06/12 02:58:17;;;;;;;9.10;6.95;;;;;;;17.48;74.66;101350.81;4972901;28;20023;-60
2023/06/12 03:00:43;;;;;;;8.27;6.82;;;;;;;17.46;74.09;101355.13;4972984;28;20054;-60
2023/06/12 03:03:08;;;;;;;10.52;7.15;;;;;;;17.44;73.78;101346.38;4970907;28;20058;-60
2023/06/12 03:05:34;;;;;;;8.40;7.60;;;;;;;17.43;73.41;101354.22;4972475;28;20052;-60
2023/06/12 03:08:02;;;;;;;9.48;8.00;;;;;;;17.43;72.80;101355.09;4971406;28;20034;-59
2023/06/12 03:10:27;;;;;;;8.32;7.57;;;;;;;17.39;73.49;101354.19;4971403;28;20033;-59
2023/06/12 03:12:53;;;;;;;8.43;7.55;;;;;;;17.36;73.79;101354.13;4971311;28;20031;-59
2023/06/12 03:15:18;;;;;;;9.15;7.57;;;;;;;17.37;74.03;101352.41;4970945;28;20037;-59
2023/06/12 03:17:43;;;;;;;8.63;7.72;;;;;;;17.34;74.10;101355.84;4969996;28;20467;-59
2023/06/12 03:20:10;;;;;;;11.40;8.05;;;;;;;17.32;75.26;101357.59;4970732;28;20026;-59
2023/06/12 03:22:35;;;;;;;7.97;7.18;;;;;;;17.31;74.66;101360.16;4970403;28;20460;-59
2023/06/12 03:25:01;;;;;;;8.48;7.57;;;;;;;17.30;74.50;101358.44;4969824;28;20471;-60
2023/06/12 03:27:29;;;;;;;8.75;7.05;;;;;;;17.24;74.77;101360.13;4971687;28;20027;-60
2023/06/12 03:29:55;;;;;;;8.45;6.50;;;;;;;17.22;74.73;101371.41;4972920;28;20430;-59
2023/06/12 03:32:20;;;;;;;7.88;6.38;;;;;;;17.19;74.30;101369.66;4972199;28;20102;-58
2023/06/12 03:34:47;;;;;;;8.95;6.55;;;;;;;17.19;74.51;101360.91;4972031;28;20034;-60
2023/06/12 03:37:12;;;;;;;6.85;6.18;;;;;;;17.16;74.87;101367.00;4972272;28;20109;-60
2023/06/12 03:39:37;;;;;;;8.32;7.07;;;;;;;17.14;75.95;101364.34;4971638;28;20424;-59
2023/06/12 03:42:03;;;;;;;8.73;6.57;;;;;;;17.12;75.67;101373.06;4972379;28;20034;-60
2023/06/12 03:44:28;;;;;;;8.68;6.47;;;;;;;17.09;77.11;101367.75;4972131;28;20503;-59
2023/06/12 03:46:53;;;;;;;7.32;6.43;;;;;;;17.12;79.22;101370.44;4972148;28;20387;-59
2023/06/12 03:49:18;;;;;;;8.48;6.57;;;;;;;17.08;80.86;101377.34;4971908;28;20037;-60
2023/06/12 03:51:44;;;;;;;7.38;6.60;;;;;;;17.05;80.90;101378.16;4972030;28;20041;-59
2023/06/12 03:54:12;;;;;;;8.05;6.68;;;;;;;17.03;81.35;101374.66;4971931;28;20077;-60
2023/06/12 03:56:38;;;;;;;8.52;6.78;;;;;;;17.02;81.55;101382.47;4971476;28;20033;-59
2023/06/12 03:59:03;;;;;;;10.85;6.93;;;;;;;16.98;82.43;101378.94;4971742;28;20026;-60
2023/06/12 04:01:28;;;;;;;8.18;6.80;;;;;;;16.96;83.04;101380.69;4971851;28;20031;-59
2023/06/12 04:03:54;;;;;;;8.13;7.38;;;;;;;16.94;84.00;101382.38;4971473;28;20027;-60
2023/06/12 04:06:24;;;;;;;8.40;7.25;;;;;;;16.92;84.81;101389.31;4971694;28;20031;-59
2023/06/12 04:08:51;;;;;;;7.65;6.95;;;;;;;16.91;85.39;101390.16;4971386;28;20105;-59
2023/06/12 04:11:18;;;;;;;8.68;7.25;;;;;;;16.89;85.62;101389.28;4972204;28;20062;-58
2023/06/12 04:13:44;;;;;;;7.72;6.93;;;;;;;16.89;86.26;101390.16;4971846;28;20026;-58
2023/06/12 04:16:10;;;;;;;7.25;6.50;;;;;;;16.91;86.25;101390.16;4971886;28;20361;-59
2023/06/12 04:18:37;;;;;;;7.20;6.50;;;;;;;16.91;87.45;101387.56;4971396;28;20457;-59
2023/06/12 04:21:03;;;;;;;8.55;7.10;;;;;;;16.92;87.46;101390.22;4970852;28;20031;-59
2023/06/12 04:23:29;;;;;;;7.43;6.72;;;;;;;16.97;86.73;101392.00;4971797;28;20025;-59
2023/06/12 04:26:06;;;;;;;8.80;6.90;;;;;;;16.99;86.40;101396.41;4971529;28;20031;-61
2023/06/12 04:28:38;;;;;;;8.05;7.28;;;;;;;17.01;87.25;101394.69;4971311;28;20390;-61
2023/06/12 04:31:03;;;;;;;7.47;6.82;;;;;;;17.02;86.85;101396.44;4970936;28;20105;-61
2023/06/12 04:33:35;;;;;;;8.70;7.18;;;;;;;17.05;86.75;101395.63;4971695;28;20158;-59
2023/06/12 04:36:03;;;;;;;9.20;6.82;;;;;;;17.09;86.75;101391.31;4970025;28;20513;-60
2023/06/12 04:38:31;;;;;;;7.30;6.60;;;;;;;17.11;86.89;101389.59;4971209;28;20158;-62
2023/06/12 04:41:00;;;;;;;6.93;6.32;;;;;;;17.16;87.57;101395.81;4971254;28;20101;-60
2023/06/12 04:43:26;;;;;;;7.63;6.63;;;;;;;17.24;84.93;101390.66;4971214;28;20034;-61
2023/06/12 04:45:52;;;;;;;8.75;7.47;;;;;;;17.30;82.01;101387.25;4970826;28;20026;-62
2023/06/12 04:48:18;;;;;;;8.05;6.95;;;;;;;17.38;80.90;101389.09;4971047;28;20447;-60
2023/06/12 04:50:47;;;;;;;8.88;6.85;;;;;;;17.48;82.06;101395.34;4971153;28;20041;-59
2023/06/12 04:53:13;;;;;;;8.40;6.90;;;;;;;17.55;79.96;101388.41;4970877;28;20475;-60
2023/06/12 04:55:38;;;;;;;10.35;7.30;;;;;;;17.64;83.12;101395.50;4970404;28;20030;-61
2023/06/12 04:58:03;;;;;;;8.35;7.45;;;;;;;17.71;81.07;101396.44;4970725;28;20485;-60
2023/06/12 05:00:30;;;;;;;7.80;6.90;;;;;;;17.79;79.85;101399.16;4970758;28;20022;-61
2023/06/12 05:02:55;;;;;;;8.90;7.00;;;;;;;17.86;78.11;101403.59;4970253;28;20046;-61
2023/06/12 05:05:21;;;;;;;8.68;7.32;;;;;;;17.95;77.39;101408.91;4970696;28;20110;-59
2023/06/12 05:07:47;;;;;;;8.85;7.68;;;;;;;18.06;76.29;101410.81;4970630;28;20505;-62
2023/06/12 05:10:14;;;;;;;8.43;7.57;;;;;;;18.13;76.09;101415.25;4970525;28;20089;-60
2023/06/12 05:12:40;;;;;;;8.02;7.22;;;;;;;18.20;76.20;101406.59;4970354;28;20145;-60
2023/06/12 05:15:06;;;;;;;9.05;7.88;;;;;;;18.27;75.49;101404.03;4970143;28;20459;-59
2023/06/12 05:17:32;;;;;;;9.70;8.68;;;;;;;18.36;75.98;101407.63;4969951;28;20035;-59
2023/06/12 05:19:57;;;;;;;8.70;7.80;;;;;;;18.45;74.92;101400.69;4970395;28;20116;-59
2023/06/12 05:22:23;;;;;;;9.18;8.27;;;;;;;18.53;73.43;101403.38;4970404;28;20029;-59
2023/06/12 05:24:48;;;;;;;10.65;9.65;;;;;;;18.60;74.31;101407.81;4969888;28;20035;-58
2023/06/12 05:27:14;;;;;;;10.10;8.88;;;;;;;18.67;73.32;101412.19;4968878;28;20383;-59
2023/06/12 05:29:39;;;;;;;10.55;9.45;;;;;;;18.76;75.00;101402.66;4970368;28;20030;-59
2023/06/12 05:32:05;;;;;;;11.70;9.52;;;;;;;18.85;73.15;101405.34;4969794;28;20027;-60
2023/06/12 05:34:30;;;;;;;10.20;9.30;;;;;;;18.94;72.87;101400.13;4970263;28;20038;-59
2023/06/12 05:36:55;;;;;;;10.05;9.02;;;;;;;19.03;71.72;101409.81;4969325;28;20085;-58
2023/06/12 05:39:21;;;;;;;9.55;8.65;;;;;;;19.14;72.78;101402.00;4969821;28;20031;-58
2023/06/12 05:41:46;;;;;;;10.60;9.60;;;;;;;19.25;71.62;101398.59;4970071;28;20026;-59
2023/06/12 05:44:11;;;;;;;13.52;9.82;;;;;;;19.36;72.07;101394.25;4970183;28;20027;-59
2023/06/12 05:46:37;;;;;;;10.90;9.75;;;;;;;19.47;70.35;101398.66;4969833;28;20030;-59
2023/06/12 05:49:03;;;;;;;8.95;8.15;;;;;;;19.60;69.90;101407.47;4969254;28;20027;-59
2023/06/12 05:51:28;;;;;;;10.23;9.32;;;;;;;19.71;70.38;101396.97;4970153;28;20023;-60
2023/06/12 05:53:54;;;;;;;11.82;9.88;;;;;;;19.82;69.55;101397.00;4969180;28;20031;-59
2023/06/12 05:56:20;;;;;;;9.23;8.27;;;;;;;19.94;70.22;101393.53;4970132;28;20380;-60
2023/06/12 05:58:45;;;;;;;9.77;8.77;;;;;;;20.05;71.12;101397.09;4969864;28;20057;-59
2023/06/12 06:01:16;;;;;;;8.73;7.47;;;;;;;20.15;70.13;101398.84;4970206;28;20038;-59
2023/06/12 06:03:45;;;;;;;8.80;7.90;;;;;;;20.26;69.45;101398.84;4969372;28;20514;-60
2023/06/12 06:06:17;;;;;;;7.88;6.93;;;;;;;20.36;68.43;101394.44;4969791;28;20482;-59
2023/06/12 06:08:43;;;;;;;10.35;7.93;;;;;;;20.47;67.14;101398.84;4969633;28;20042;-60
2023/06/12 06:11:09;;;;;;;9.85;8.68;;;;;;;20.56;66.12;101393.56;4969782;28;20053;-60
2023/06/12 06:13:34;;;;;;;8.43;7.57;;;;;;;20.65;65.50;101403.22;4970209;28;20027;-60
2023/06/12 06:16:02;;;;;;;10.40;8.27;;;;;;;20.74;64.95;101397.94;4969826;28;20039;-59
2023/06/12 06:18:28;;;;;;;7.15;6.53;;;;;;;20.87;64.69;101398.78;4969588;28;20432;-60
2023/06/12 06:20:53;;;;;;;12.20;8.10;;;;;;;21.02;63.66;101402.31;4969617;28;20031;-61
2023/06/12 06:23:21;;;;;;;9.65;7.88;;;;;;;21.13;63.02;101398.75;4969464;28;20072;-60
2023/06/12 06:25:47;;;;;;;7.82;7.15;;;;;;;21.21;61.82;101396.94;4969809;28;20110;-60
2023/06/12 06:28:12;;;;;;;9.35;8.35;;;;;;;21.30;61.17;101398.69;4969631;28;20039;-60
2023/06/12 06:30:38;;;;;;;7.03;6.32;;;;;;;21.40;61.57;101404.78;4969068;28;20041;-59
2023/06/12 06:33:03;;;;;;;9.38;8.05;;;;;;;21.51;61.63;101408.28;4969201;28;20387;-60
2023/06/12 06:35:28;;;;;;;6.63;5.97;;;;;;;21.62;61.46;101399.41;4969162;28;20061;-60
2023/06/12 06:37:53;;;;;;;9.00;8.13;;;;;;;21.74;59.46;101406.38;4968985;28;20094;-60
2023/06/12 06:40:19;;;;;;;7.13;5.97;;;;;;;21.88;60.55;101408.94;4969305;28;20050;-59
2023/06/12 06:42:44;;;;;;;6.75;6.05;;;;;;;22.01;59.62;101401.84;4969314;28;20031;-60
2023/06/12 06:45:10;;;;;;;9.80;6.88;;;;;;;22.10;57.72;101404.41;4969215;28;20037;-59
2023/06/12 06:47:36;;;;;;;8.40;6.55;;;;;;;22.18;56.80;101399.09;4969200;28;20027;-60
2023/06/12 06:50:02;;;;;;;7.05;6.45;;;;;;;22.28;57.09;101408.69;4969218;28;20073;-60
2023/06/12 06:52:27;;;;;;;8.80;6.65;;;;;;;22.39;57.53;101415.63;4969045;28;20424;-60
2023/06/12 06:54:52;;;;;;;6.65;5.68;;;;;;;22.48;56.12;101412.91;4969338;28;20031;-60
2023/06/12 06:57:18;;;;;;;5.85;5.20;;;;;;;22.62;56.53;101406.63;4969457;28;20039;-60
2023/06/12 06:59:44;;;;;;;6.90;5.28;;;;;;;22.76;57.00;101403.88;4971571;28;20387;-59
2023/06/12 07:02:10;;;;;;;6.68;5.35;;;;;;;22.88;56.48;101410.81;4972507;28;20026;-59
2023/06/12 07:04:35;;;;;;;7.50;6.15;;;;;;;23.00;55.61;101396.56;4973210;28;20028;-60
2023/06/12 07:07:00;;;;;;;7.45;5.70;;;;;;;23.12;54.02;101406.13;4972814;28;20106;-60
2023/06/12 07:09:26;;;;;;;6.22;5.65;;;;;;;23.20;53.39;101406.91;4972821;28;20027;-61
2023/06/12 07:11:51;;;;;;;6.68;5.35;;;;;;;23.36;53.25;101410.25;4972871;28;20092;-60
2023/06/12 07:14:17;;;;;;;6.32;5.50;;;;;;;23.51;53.28;101408.34;4972495;28;20041;-60
2023/06/12 07:16:44;;;;;;;6.13;5.38;;;;;;;23.58;51.75;101401.19;4972411;28;20110;-60
2023/06/12 07:19:09;;;;;;;6.20;4.90;;;;;;;23.69;51.72;101396.59;4972864;28;20031;-60
2023/06/12 07:21:35;;;;;;;9.07;5.40;;;;;;;23.83;52.15;101399.06;4986971;28;20490;-60
2023/06/12 07:24:01;;;;;;;6.45;5.70;;;;;;;23.95;51.99;101399.75;4972105;28;20034;-60
2023/06/12 07:26:27;;;;;;;6.18;5.47;;;;;;;24.07;52.12;101396.91;4972833;28;20038;-60
2023/06/12 07:28:53;;;;;;;6.60;5.30;;;;;;;24.18;50.80;101393.22;4972779;28;20030;-61
2023/06/12 07:31:18;;;;;;;9.10;6.25;;;;;;;24.26;51.08;101395.78;4972447;28;20495;-60
2023/06/12 07:33:44;;;;;;;6.20;5.60;;;;;;;24.37;49.83;101393.81;4971223;28;20059;-60
2023/06/12 07:36:10;;;;;;;7.88;5.30;;;;;;;24.54;49.55;101396.16;4971706;28;20141;-59
2023/06/12 07:38:36;;;;;;;5.30;4.72;;;;;;;24.72;49.21;101393.22;4972043;28;20097;-60
2023/06/12 07:41:01;;;;;;;5.82;4.93;;;;;;;24.88;49.12;101397.28;4971413;28;20113;-61
2023/06/12 07:43:27;;;;;;;6.38;5.50;;;;;;;25.03;48.54;101389.97;4971529;28;20117;-61
2023/06/12 07:45:52;;;;;;;5.65;5.15;;;;;;;25.16;47.99;101395.91;4972126;28;20077;-60
2023/06/12 07:48:17;;;;;;;7.07;5.32;;;;;;;25.32;47.70;101388.50;4972301;28;20037;-60
2023/06/12 07:50:42;;;;;;;5.78;5.28;;;;;;;25.45;46.51;101389.13;4972086;28;20029;-60
2023/06/12 07:53:08;;;;;;;7.25;5.45;;;;;;;25.60;46.72;101387.88;4971373;28;20027;-61
2023/06/12 07:55:34;;;;;;;6.10;5.13;;;;;;;25.75;45.98;101385.81;4972131;28;20022;-60
2023/06/12 07:58:00;;;;;;;9.45;5.93;;;;;;;25.92;45.96;101385.44;4972034;28;20093;-60
2023/06/12 08:00:26;;;;;;;5.63;4.95;;;;;;;26.09;45.69;101395.63;4971768;28;20383;-61
2023/06/12 08:02:57;;;;;;;6.50;4.93;;;;;;;26.28;45.11;101388.97;4971618;28;20485;-60
2023/06/12 08:05:24;;;;;;;6.75;5.03;;;;;;;26.35;43.21;101396.78;4971555;28;20364;-61
2023/06/12 08:07:50;;;;;;;9.32;6.20;;;;;;;26.33;42.43;101397.69;4971764;28;20039;-60
2023/06/12 08:10:16;;;;;;;5.82;5.35;;;;;;;26.36;42.97;101398.53;4971158;28;20014;-60
2023/06/12 08:12:41;;;;;;;5.70;5.10;;;;;;;26.33;43.59;101387.94;4971548;28;20085;-61
2023/06/12 08:15:07;;;;;;;5.28;4.78;;;;;;;26.42;44.24;101383.34;4971628;28;20107;-61
2023/06/12 08:17:32;;;;;;;6.18;5.57;;;;;;;26.51;43.11;101385.75;4971254;28;20031;-60
2023/06/12 08:19:57;;;;;;;5.55;5.05;;;;;;;26.70;43.95;101379.91;4971899;28;20026;-61
2023/06/12 08:22:23;;;;;;;5.43;4.68;;;;;;;26.86;41.66;101386.56;4971162;28;20027;-61
2023/06/12 08:24:48;;;;;;;5.45;4.95;;;;;;;27.07;42.01;101386.88;4971620;28;20019;-61
2023/06/12 08:27:14;;;;;;;7.75;4.75;;;;;;;27.26;41.27;101383.69;4971241;28;20023;-61
2023/06/12 08:29:40;;;;;;;5.28;4.78;;;;;;;27.41;40.52;101389.47;4971593;28;20145;-61
2023/06/12 08:32:06;;;;;;;5.07;4.68;;;;;;;27.46;40.18;101390.19;4971370;28;20035;-61
2023/06/12 08:34:32;;;;;;;4.90;4.40;;;;;;;27.62;38.99;101389.69;4971303;28;20054;-61
2023/06/12 08:36:57;;;;;;;5.35;4.75;;;;;;;27.76;39.23;101391.94;4970477;28;20089;-61
2023/06/12 08:39:23;;;;;;;5.60;5.10;;;;;;;27.91;38.55;101395.91;4971009;28;20023;-61
2023/06/12 08:42:07;;;;;;;4.90;4.40;;;;;;;27.91;38.91;101385.25;4971030;28;20041;-61
2023/06/12 08:44:33;;;;;;;5.65;4.95;;;;;;;28.14;40.26;101392.47;4970986;28;20058;-61
2023/06/12 08:47:03;;;;;;;8.00;4.97;;;;;;;28.23;38.53;101388.63;4971186;28;20390;-61
2023/06/12 08:49:32;;;;;;;5.88;5.13;;;;;;;28.39;39.86;101374.81;4971410;28;20039;-61
2023/06/12 08:51:57;;;;;;;6.88;5.40;;;;;;;28.46;39.62;101380.81;4970758;28;20057;-61
2023/06/12 08:54:23;;;;;;;5.50;5.00;;;;;;;28.53;37.72;101387.66;4970537;28;20110;-61
2023/06/12 08:56:50;;;;;;;7.20;5.07;;;;;;;28.67;39.09;101379.19;4971024;28;20500;-61
2023/06/12 08:59:15;;;;;;;6.93;5.03;;;;;;;28.77;38.07;101380.56;4970275;28;20121;-61
2023/06/12 09:01:41;;;;;;;5.57;4.55;;;;;;;28.86;37.06;101383.81;4970567;28;20109;-61
2023/06/12 09:04:19;;;;;;;4.70;4.30;;;;;;;29.00;37.39;101380.66;4970939;28;20646;-61
2023/06/12 09:06:45;;;;;;;5.10;4.70;;;;;;;29.12;36.59;101376.69;4970673;28;20427;-61
2023/06/12 09:09:11;;;;;;;5.18;4.72;;;;;;;29.12;35.95;101368.66;4970830;28;20042;-61
2023/06/12 09:11:37;;;;;;;6.22;4.82;;;;;;;29.15;35.84;101370.34;4970771;28;20026;-61
2023/06/12 09:14:03;;;;;;;5.90;4.43;;;;;;;29.20;36.64;101371.91;4969830;28;20423;-61
2023/06/12 09:16:28;;;;;;;6.10;4.60;;;;;;;29.20;36.50;101365.69;4970589;28;20030;-61
2023/06/12 09:18:54;;;;;;;7.53;4.53;;;;;;;29.32;37.33;101364.38;4970483;28;20031;-61
2023/06/12 09:21:21;;;;;;;5.78;5.10;;;;;;;29.49;37.79;101367.22;4970642;28;20395;-62
2023/06/12 09:23:51;;;;;;;5.40;4.90;;;;;;;29.43;34.63;101366.59;4970702;28;20046;-62
2023/06/12 09:26:19;;;;;;;5.22;4.40;;;;;;;29.59;36.49;101356.19;4969839;28;20026;-61
2023/06/12 09:28:44;;;;;;;7.18;5.30;;;;;;;29.75;36.46;101355.56;4970270;28;20051;-62
2023/06/12 09:31:14;;;;;;;4.70;4.25;;;;;;;29.84;35.27;101358.72;4970659;28;20312;-61
2023/06/12 09:33:40;;;;;;;4.73;4.33;;;;;;;29.94;34.59;101367.22;4970359;28;20059;-61
2023/06/12 09:36:07;;;;;;;6.70;4.60;;;;;;;30.03;34.18;101365.09;4969916;28;20054;-60
2023/06/12 09:38:34;;;;;;;4.00;3.50;;;;;;;30.08;34.68;101363.09;4970286;28;20471;-61
2023/06/12 09:41:01;;;;;;;4.93;4.40;;;;;;;30.05;34.38;101360.56;4969946;28;20042;-62
2023/06/12 09:43:27;;;;;;;5.30;4.80;;;;;;;30.10;33.75;101361.22;4970119;28;20027;-62
2023/06/12 09:45:53;;;;;;;5.80;4.40;;;;;;;30.16;34.64;101370.78;4970429;28;20041;-62
2023/06/12 09:48:18;;;;;;;5.10;4.50;;;;;;;30.22;34.01;101361.63;4970223;28;20033;-62
2023/06/12 09:50:45;;;;;;;5.03;4.63;;;;;;;30.31;33.80;101359.44;4969707;28;20019;-61
2023/06/12 09:53:16;;;;;;;5.32;4.45;;;;;;;30.28;33.16;101350.69;4970146;28;20027;-62
2023/06/12 09:55:44;;;;;;;5.60;5.00;;;;;;;30.14;32.82;101352.16;4969608;28;20034;-62
2023/06/12 09:58:13;;;;;;;4.88;4.40;;;;;;;30.13;34.11;101360.25;4969880;28;20030;-62
2023/06/12 10:00:39;;;;;;;5.97;4.95;;;;;;;30.06;34.55;101359.63;4969704;28;20046;-62
2023/06/12 10:03:09;;;;;;;6.32;4.78;;;;;;;29.96;34.77;101365.38;4969390;28;20045;-62
2023/06/12 10:05:38;;;;;;;6.63;4.00;;;;;;;29.88;34.37;101362.13;4969398;28;20030;-62
2023/06/12 10:08:04;;;;;;;6.07;5.10;;;;;;;29.63;33.93;101365.81;4969267;28;20034;-61
2023/06/12 10:10:31;;;;;;;5.05;4.55;;;;;;;29.67;35.34;101359.44;4969840;28;20111;-61
2023/06/12 10:12:56;;;;;;;5.85;4.70;;;;;;;29.81;34.19;101366.00;4969319;28;20035;-61
2023/06/12 10:15:22;;;;;;;5.00;4.35;;;;;;;29.89;33.36;101347.88;4969712;28;20475;-62
2023/06/12 10:17:50;;;;;;;4.55;4.15;;;;;;;30.02;33.87;101358.03;4970093;28;20037;-62
2023/06/12 10:20:18;;;;;;;7.20;4.72;;;;;;;30.17;33.50;101354.69;4969575;28;20058;-62
2023/06/12 10:22:43;;;;;;;5.07;4.57;;;;;;;30.18;33.62;101351.09;4968758;28;20121;-61
2023/06/12 10:25:09;;;;;;;5.43;4.93;;;;;;;30.23;32.91;101352.72;4969584;28;20165;-61
2023/06/12 10:27:36;;;;;;;8.15;5.03;;;;;;;30.19;33.08;101344.81;4969742;28;20530;-61
2023/06/12 10:30:03;;;;;;;8.57;5.25;;;;;;;30.31;33.00;101347.91;4969183;28;20031;-62
2023/06/12 10:32:32;;;;;;;5.95;4.45;;;;;;;30.48;33.28;101344.47;4969117;28;20027;-62
2023/06/12 10:34:58;;;;;;;5.03;4.47;;;;;;;30.60;34.48;101340.38;4972313;28;20035;-62
2023/06/12 10:37:29;;;;;;;5.78;4.35;;;;;;;30.73;33.11;101342.50;4972856;28;20034;-61
2023/06/12 10:40:10;;;;;;;;;;;;;;;30.77;33.11;101339.63;4973946;28;20106;-61
2023/06/12 10:42:47;;;;;;;5.32;4.82;;;;;;;30.82;33.07;101342.06;4973384;28;19910;-61
2023/06/12 10:45:21;;;;;;;5.55;4.43;;;;;;;30.65;31.31;101333.03;4972976;28;20036;-61
2023/06/12 10:48:02;;;;;;;5.88;5.38;;;;;;;30.56;32.75;101325.44;4973264;28;20092;-62
2023/06/12 10:50:27;;;;;;;4.40;4.10;;;;;;;30.66;32.88;101325.88;4973561;28;20105;-61
2023/06/12 10:52:56;;;;;;;5.88;4.63;;;;;;;30.67;32.85;101320.44;4973060;28;20109;-61
2023/06/12 10:55:27;;;;;;;8.43;5.20;;;;;;;30.74;33.72;101328.19;4972462;28;20779;-61
2023/06/12 10:57:54;;;;;;;5.57;5.07;;;;;;;30.74;32.73;101326.41;4972787;28;20029;-61
2023/06/12 11:00:22;;;;;;;5.22;4.72;;;;;;;30.74;33.33;101320.19;4972993;28;20034;-61
2023/06/12 11:02:58;;;;;;;4.88;4.43;;;;;;;30.75;32.69;101320.09;4973375;28;20030;-61
2023/06/12 11:05:25;;;;;;;5.38;4.88;;;;;;;30.82;32.45;101315.34;4972619;28;20059;-62
2023/06/12 11:07:54;;;;;;;5.05;4.65;;;;;;;30.96;33.79;101311.19;4972985;28;20026;-62
2023/06/12 11:10:19;;;;;;;5.63;5.03;;;;;;;31.02;33.02;101311.75;4972657;28;20245;-61
2023/06/12 11:12:49;;;;;;;6.25;4.80;;;;;;;31.07;33.26;101314.19;4973095;28;20502;-61
2023/06/12 11:15:15;;;;;;;6.20;5.28;;;;;;;31.08;32.07;101326.66;4972842;28;20114;-61
2023/06/12 11:17:40;;;;;;;5.65;5.22;;;;;;;31.07;32.41;101313.34;4972806;28;20113;-61
2023/06/12 11:20:07;;;;;;;8.30;5.18;;;;;;;31.05;32.88;101313.41;4972066;28;20328;-61
2023/06/12 11:22:32;;;;;;;7.60;4.90;;;;;;;31.15;33.68;101322.75;4972775;28;20101;-60
2023/06/12 11:25:03;;;;;;;5.18;4.78;;;;;;;31.11;31.83;101312.25;4972802;28;20454;-61